sensor_id;sensor_type;location;lat;lon;timestamp;P1;durP1;ratioP1;P2;durP2;ratioP2
7142;SDS011;3613;48.902;9.204;2024-03-02T00:01:26;9.30;;;5.27;;
7142;SDS011;3613;48.902;9.204;2024-03-02T00:03:51;8.20;;;4.97;;
7142;SDS011;3613;48.902;9.204;2024-03-02T00:06:19;6.53;;;4.50;;
7142;SDS011;3613;48.902;9.204;2024-03-02T00:08:46;8.70;;;4.93;;
7142;SDS011;3613;48.902;9.204;2024-03-02T00:11:12;8.20;;;4.63;;
7142;SDS011;3613;48.902;9.204;2024-03-02T00:13:39;9.30;;;4.97;;
7142;SDS011;3613;48.902;9.204;2024-03-02T00:16:07;6.30;;;4.83;;
7142;SDS011;3613;48.902;9.204;2024-03-02T00:18:33;7.83;;;4.80;;
7142;SDS011;3613;48.902;9.204;2024-03-02T00:21:02;8.90;;;5.30;;
7142;SDS011;3613;48.902;9.204;2024-03-02T00:23:30;8.60;;;5.10;;
7142;SDS011;3613;48.902;9.204;2024-03-02T00:25:57;7.83;;;4.47;;
7142;SDS011;3613;48.902;9.204;2024-03-02T00:28:29;8.87;;;5.63;;
7142;SDS011;3613;48.902;9.204;2024-03-02T00:33:33;8.77;;;5.30;;
7142;SDS011;3613;48.902;9.204;2024-03-02T00:36:15;8.37;;;4.67;;
7142;SDS011;3613;48.902;9.204;2024-03-02T00:38:49;7.40;;;5.17;;
7142;SDS011;3613;48.902;9.204;2024-03-02T00:41:20;6.23;;;4.43;;
7142;SDS011;3613;48.902;9.204;2024-03-02T00:46:27;9.57;;;5.03;;
7142;SDS011;3613;48.902;9.204;2024-03-02T00:48:56;8.57;;;4.60;;
7142;SDS011;3613;48.902;9.204;2024-03-02T00:51:26;6.47;;;4.90;;
7142;SDS011;3613;48.902;9.204;2024-03-02T00:53:54;7.10;;;4.17;;
7142;SDS011;3613;48.902;9.204;2024-03-02T00:56:21;6.73;;;4.50;;
7142;SDS011;3613;48.902;9.204;2024-03-02T00:58:48;9.27;;;5.00;;
7142;SDS011;3613;48.902;9.204;2024-03-02T01:01:18;8.13;;;4.47;;
7142;SDS011;3613;48.902;9.204;2024-03-02T01:03:49;7.87;;;4.40;;
7142;SDS011;3613;48.902;9.204;2024-03-02T01:06:15;7.53;;;4.23;;
7142;SDS011;3613;48.902;9.204;2024-03-02T01:08:42;7.47;;;4.50;;
7142;SDS011;3613;48.902;9.204;2024-03-02T01:11:08;6.77;;;4.87;;
7142;SDS011;3613;48.902;9.204;2024-03-02T01:13:34;6.43;;;3.87;;
7142;SDS011;3613;48.902;9.204;2024-03-02T01:15:59;7.13;;;4.97;;
7142;SDS011;3613;48.902;9.204;2024-03-02T01:18:25;5.67;;;4.50;;
7142;SDS011;3613;48.902;9.204;2024-03-02T01:20:51;8.00;;;4.47;;
7142;SDS011;3613;48.902;9.204;2024-03-02T01:23:18;5.60;;;4.47;;
7142;SDS011;3613;48.902;9.204;2024-03-02T01:25:47;6.00;;;4.53;;
7142;SDS011;3613;48.902;9.204;2024-03-02T01:28:15;8.57;;;4.93;;
7142;SDS011;3613;48.902;9.204;2024-03-02T01:30:41;6.30;;;4.77;;
7142;SDS011;3613;48.902;9.204;2024-03-02T01:33:07;6.37;;;4.20;;
7142;SDS011;3613;48.902;9.204;2024-03-02T01:35:32;6.77;;;4.60;;
7142;SDS011;3613;48.902;9.204;2024-03-02T01:37:59;7.27;;;4.10;;
7142;SDS011;3613;48.902;9.204;2024-03-02T01:40:25;6.73;;;4.70;;
7142;SDS011;3613;48.902;9.204;2024-03-02T01:42:51;7.13;;;4.27;;
7142;SDS011;3613;48.902;9.204;2024-03-02T01:45:23;7.33;;;4.60;;
7142;SDS011;3613;48.902;9.204;2024-03-02T01:47:51;5.53;;;4.23;;
7142;SDS011;3613;48.902;9.204;2024-03-02T01:52:53;6.27;;;4.07;;
7142;SDS011;3613;48.902;9.204;2024-03-02T01:55:22;7.70;;;4.50;;
7142;SDS011;3613;48.902;9.204;2024-03-02T01:57:51;5.67;;;4.20;;
7142;SDS011;3613;48.902;9.204;2024-03-02T02:00:17;6.73;;;4.40;;
7142;SDS011;3613;48.902;9.204;2024-03-02T02:02:44;6.70;;;4.80;;
7142;SDS011;3613;48.902;9.204;2024-03-02T02:05:10;6.20;;;3.83;;
7142;SDS011;3613;48.902;9.204;2024-03-02T02:07:36;6.13;;;4.37;;
7142;SDS011;3613;48.902;9.204;2024-03-02T02:10:04;6.00;;;4.67;;
7142;SDS011;3613;48.902;9.204;2024-03-02T02:12:32;6.03;;;3.80;;
7142;SDS011;3613;48.902;9.204;2024-03-02T02:14:58;6.07;;;4.30;;
7142;SDS011;3613;48.902;9.204;2024-03-02T02:17:26;5.43;;;4.50;;
7142;SDS011;3613;48.902;9.204;2024-03-02T02:19:52;5.27;;;4.10;;
7142;SDS011;3613;48.902;9.204;2024-03-02T02:22:17;5.27;;;4.20;;
7142;SDS011;3613;48.902;9.204;2024-03-02T02:24:43;5.33;;;3.97;;
7142;SDS011;3613;48.902;9.204;2024-03-02T02:27:09;5.00;;;3.70;;
7142;SDS011;3613;48.902;9.204;2024-03-02T02:29:39;6.93;;;4.43;;
7142;SDS011;3613;48.902;9.204;2024-03-02T02:32:05;6.10;;;4.10;;
7142;SDS011;3613;48.902;9.204;2024-03-02T02:34:33;4.73;;;3.63;;
7142;SDS011;3613;48.902;9.204;2024-03-02T02:36:58;5.13;;;4.00;;
7142;SDS011;3613;48.902;9.204;2024-03-02T02:39:30;6.27;;;4.00;;
7142;SDS011;3613;48.902;9.204;2024-03-02T02:41:58;6.50;;;4.43;;
7142;SDS011;3613;48.902;9.204;2024-03-02T02:44:26;6.00;;;4.13;;
7142;SDS011;3613;48.902;9.204;2024-03-02T02:46:53;6.00;;;4.10;;
7142;SDS011;3613;48.902;9.204;2024-03-02T02:49:21;5.60;;;3.83;;
7142;SDS011;3613;48.902;9.204;2024-03-02T02:51:49;4.43;;;3.57;;
7142;SDS011;3613;48.902;9.204;2024-03-02T02:54:15;5.27;;;3.77;;
7142;SDS011;3613;48.902;9.204;2024-03-02T02:56:41;6.20;;;4.23;;
7142;SDS011;3613;48.902;9.204;2024-03-02T02:59:06;6.53;;;4.10;;
7142;SDS011;3613;48.902;9.204;2024-03-02T03:01:34;6.50;;;4.13;;
7142;SDS011;3613;48.902;9.204;2024-03-02T03:04:00;6.33;;;4.60;;
7142;SDS011;3613;48.902;9.204;2024-03-02T03:06:25;6.90;;;4.03;;
7142;SDS011;3613;48.902;9.204;2024-03-02T03:08:51;5.17;;;3.93;;
7142;SDS011;3613;48.902;9.204;2024-03-02T03:11:16;5.90;;;3.90;;
7142;SDS011;3613;48.902;9.204;2024-03-02T03:13:42;4.57;;;3.97;;
7142;SDS011;3613;48.902;9.204;2024-03-02T03:16:10;5.13;;;3.70;;
7142;SDS011;3613;48.902;9.204;2024-03-02T03:18:38;5.00;;;3.70;;
7142;SDS011;3613;48.902;9.204;2024-03-02T03:21:03;4.83;;;3.87;;
7142;SDS011;3613;48.902;9.204;2024-03-02T03:23:31;5.60;;;4.17;;
7142;SDS011;3613;48.902;9.204;2024-03-02T03:25:59;5.57;;;4.00;;
7142;SDS011;3613;48.902;9.204;2024-03-02T03:28:26;5.93;;;4.00;;
7142;SDS011;3613;48.902;9.204;2024-03-02T03:30:56;4.83;;;3.80;;
7142;SDS011;3613;48.902;9.204;2024-03-02T03:33:24;6.13;;;3.93;;
7142;SDS011;3613;48.902;9.204;2024-03-02T03:35:50;4.80;;;3.70;;
7142;SDS011;3613;48.902;9.204;2024-03-02T03:38:18;6.17;;;4.10;;
7142;SDS011;3613;48.902;9.204;2024-03-02T03:40:44;3.90;;;3.50;;
7142;SDS011;3613;48.902;9.204;2024-03-02T03:43:12;5.03;;;3.90;;
7142;SDS011;3613;48.902;9.204;2024-03-02T03:45:38;5.10;;;3.77;;
7142;SDS011;3613;48.902;9.204;2024-03-02T03:48:03;4.90;;;3.77;;
7142;SDS011;3613;48.902;9.204;2024-03-02T03:50:29;4.63;;;3.20;;
7142;SDS011;3613;48.902;9.204;2024-03-02T03:52:57;6.10;;;3.70;;
7142;SDS011;3613;48.902;9.204;2024-03-02T03:55:23;6.10;;;4.30;;
7142;SDS011;3613;48.902;9.204;2024-03-02T03:57:51;5.20;;;3.97;;
7142;SDS011;3613;48.902;9.204;2024-03-02T04:00:19;4.00;;;3.53;;
7142;SDS011;3613;48.902;9.204;2024-03-02T04:02:44;3.93;;;3.33;;
7142;SDS011;3613;48.902;9.204;2024-03-02T04:05:12;4.80;;;3.60;;
7142;SDS011;3613;48.902;9.204;2024-03-02T04:07:40;4.47;;;3.47;;
7142;SDS011;3613;48.902;9.204;2024-03-02T04:10:09;4.83;;;3.53;;
7142;SDS011;3613;48.902;9.204;2024-03-02T04:12:38;4.23;;;3.80;;
7142;SDS011;3613;48.902;9.204;2024-03-02T04:15:08;5.67;;;3.33;;
7142;SDS011;3613;48.902;9.204;2024-03-02T04:17:36;4.53;;;3.67;;
7142;SDS011;3613;48.902;9.204;2024-03-02T04:20:02;3.97;;;2.93;;
7142;SDS011;3613;48.902;9.204;2024-03-02T04:22:30;5.70;;;4.00;;
7142;SDS011;3613;48.902;9.204;2024-03-02T04:24:59;4.43;;;3.77;;
7142;SDS011;3613;48.902;9.204;2024-03-02T04:27:25;6.03;;;3.63;;
7142;SDS011;3613;48.902;9.204;2024-03-02T04:29:53;5.53;;;3.77;;
7142;SDS011;3613;48.902;9.204;2024-03-02T04:32:19;4.77;;;3.40;;
7142;SDS011;3613;48.902;9.204;2024-03-02T04:34:47;4.23;;;3.20;;
7142;SDS011;3613;48.902;9.204;2024-03-02T04:37:15;4.30;;;3.60;;
7142;SDS011;3613;48.902;9.204;2024-03-02T04:39:40;4.43;;;3.40;;
7142;SDS011;3613;48.902;9.204;2024-03-02T04:42:08;4.00;;;3.47;;
7142;SDS011;3613;48.902;9.204;2024-03-02T04:44:36;3.77;;;3.47;;
7142;SDS011;3613;48.902;9.204;2024-03-02T04:47:03;4.17;;;3.53;;
7142;SDS011;3613;48.902;9.204;2024-03-02T04:49:31;4.07;;;3.27;;
7142;SDS011;3613;48.902;9.204;2024-03-02T04:51:56;4.77;;;3.67;;
7142;SDS011;3613;48.902;9.204;2024-03-02T04:54:22;4.80;;;3.67;;
7142;SDS011;3613;48.902;9.204;2024-03-02T04:56:48;3.73;;;3.10;;
7142;SDS011;3613;48.902;9.204;2024-03-02T04:59:17;4.60;;;3.10;;
7142;SDS011;3613;48.902;9.204;2024-03-02T05:01:45;3.83;;;3.40;;
7142;SDS011;3613;48.902;9.204;2024-03-02T05:04:13;4.03;;;3.20;;
7142;SDS011;3613;48.902;9.204;2024-03-02T05:06:41;4.13;;;3.60;;
7142;SDS011;3613;48.902;9.204;2024-03-02T05:09:09;3.93;;;3.50;;
7142;SDS011;3613;48.902;9.204;2024-03-02T05:11:35;4.83;;;3.67;;
7142;SDS011;3613;48.902;9.204;2024-03-02T05:14:03;4.20;;;3.43;;
7142;SDS011;3613;48.902;9.204;2024-03-02T05:16:32;5.07;;;3.60;;
7142;SDS011;3613;48.902;9.204;2024-03-02T05:18:59;3.80;;;3.40;;
7142;SDS011;3613;48.902;9.204;2024-03-02T05:21:24;4.87;;;3.90;;
7142;SDS011;3613;48.902;9.204;2024-03-02T05:23:50;3.40;;;2.87;;
7142;SDS011;3613;48.902;9.204;2024-03-02T05:26:16;4.50;;;3.57;;
7142;SDS011;3613;48.902;9.204;2024-03-02T05:28:41;3.43;;;3.00;;
7142;SDS011;3613;48.902;9.204;2024-03-02T05:31:12;3.50;;;3.20;;
7142;SDS011;3613;48.902;9.204;2024-03-02T05:33:40;3.90;;;3.20;;
7142;SDS011;3613;48.902;9.204;2024-03-02T05:36:08;4.57;;;3.20;;
7142;SDS011;3613;48.902;9.204;2024-03-02T05:38:37;4.00;;;3.03;;
7142;SDS011;3613;48.902;9.204;2024-03-02T05:41:03;4.77;;;3.63;;
7142;SDS011;3613;48.902;9.204;2024-03-02T05:43:31;5.07;;;3.30;;
7142;SDS011;3613;48.902;9.204;2024-03-02T05:45:57;4.63;;;3.30;;
7142;SDS011;3613;48.902;9.204;2024-03-02T05:48:22;3.37;;;2.87;;
7142;SDS011;3613;48.902;9.204;2024-03-02T05:50:48;5.57;;;3.57;;
7142;SDS011;3613;48.902;9.204;2024-03-02T05:53:13;4.27;;;3.37;;
7142;SDS011;3613;48.902;9.204;2024-03-02T05:55:40;4.70;;;3.63;;
7142;SDS011;3613;48.902;9.204;2024-03-02T05:58:06;4.23;;;2.73;;
7142;SDS011;3613;48.902;9.204;2024-03-02T06:00:31;4.33;;;3.53;;
7142;SDS011;3613;48.902;9.204;2024-03-02T06:03:00;4.37;;;3.33;;
7142;SDS011;3613;48.902;9.204;2024-03-02T06:05:28;4.50;;;4.10;;
7142;SDS011;3613;48.902;9.204;2024-03-02T06:07:53;3.67;;;3.27;;
7142;SDS011;3613;48.902;9.204;2024-03-02T06:10:19;4.47;;;3.00;;
7142;SDS011;3613;48.902;9.204;2024-03-02T06:12:48;4.13;;;3.43;;
7142;SDS011;3613;48.902;9.204;2024-03-02T06:15:13;4.00;;;3.20;;
7142;SDS011;3613;48.902;9.204;2024-03-02T06:17:41;4.27;;;3.40;;
7142;SDS011;3613;48.902;9.204;2024-03-02T06:20:07;4.37;;;3.40;;
7142;SDS011;3613;48.902;9.204;2024-03-02T06:22:35;3.77;;;3.37;;
7142;SDS011;3613;48.902;9.204;2024-03-02T06:25:01;3.70;;;3.33;;
7142;SDS011;3613;48.902;9.204;2024-03-02T06:27:27;4.73;;;3.00;;
7142;SDS011;3613;48.902;9.204;2024-03-02T06:29:52;5.00;;;3.73;;
7142;SDS011;3613;48.902;9.204;2024-03-02T06:32:20;5.33;;;3.80;;
7142;SDS011;3613;48.902;9.204;2024-03-02T06:34:46;4.13;;;3.30;;
7142;SDS011;3613;48.902;9.204;2024-03-02T06:37:11;4.23;;;3.27;;
7142;SDS011;3613;48.902;9.204;2024-03-02T06:39:38;5.37;;;3.20;;
7142;SDS011;3613;48.902;9.204;2024-03-02T06:42:03;5.20;;;3.60;;
7142;SDS011;3613;48.902;9.204;2024-03-02T06:44:29;4.40;;;3.30;;
7142;SDS011;3613;48.902;9.204;2024-03-02T06:46:57;5.17;;;3.40;;
7142;SDS011;3613;48.902;9.204;2024-03-02T06:49:22;3.57;;;3.17;;
7142;SDS011;3613;48.902;9.204;2024-03-02T06:51:48;4.33;;;3.10;;
7142;SDS011;3613;48.902;9.204;2024-03-02T06:54:14;4.13;;;3.30;;
7142;SDS011;3613;48.902;9.204;2024-03-02T06:56:43;3.20;;;2.90;;
7142;SDS011;3613;48.902;9.204;2024-03-02T06:59:08;4.20;;;3.20;;
7142;SDS011;3613;48.902;9.204;2024-03-02T07:01:34;3.73;;;3.17;;
7142;SDS011;3613;48.902;9.204;2024-03-02T07:03:59;4.97;;;3.30;;
7142;SDS011;3613;48.902;9.204;2024-03-02T07:06:27;4.00;;;3.23;;
7142;SDS011;3613;48.902;9.204;2024-03-02T07:08:55;3.70;;;3.30;;
7142;SDS011;3613;48.902;9.204;2024-03-02T07:11:21;3.30;;;3.00;;
7142;SDS011;3613;48.902;9.204;2024-03-02T07:13:46;3.90;;;2.97;;
7142;SDS011;3613;48.902;9.204;2024-03-02T07:16:12;5.00;;;3.33;;
7142;SDS011;3613;48.902;9.204;2024-03-02T07:18:53;4.13;;;3.00;;
7142;SDS011;3613;48.902;9.204;2024-03-02T07:21:21;3.20;;;2.90;;
7142;SDS011;3613;48.902;9.204;2024-03-02T07:23:50;3.20;;;2.90;;
7142;SDS011;3613;48.902;9.204;2024-03-02T07:26:16;3.67;;;2.67;;
7142;SDS011;3613;48.902;9.204;2024-03-02T07:28:43;3.23;;;2.93;;
7142;SDS011;3613;48.902;9.204;2024-03-02T07:31:09;5.17;;;3.10;;
7142;SDS011;3613;48.902;9.204;2024-03-02T07:33:35;3.43;;;3.00;;
7142;SDS011;3613;48.902;9.204;2024-03-02T07:36:01;3.73;;;2.93;;
7142;SDS011;3613;48.902;9.204;2024-03-02T07:38:27;3.77;;;2.80;;
7142;SDS011;3613;48.902;9.204;2024-03-02T07:40:53;4.07;;;3.10;;
7142;SDS011;3613;48.902;9.204;2024-03-02T07:43:20;3.43;;;3.00;;
7142;SDS011;3613;48.902;9.204;2024-03-02T07:45:48;4.00;;;2.83;;
7142;SDS011;3613;48.902;9.204;2024-03-02T07:48:16;4.03;;;3.37;;
7142;SDS011;3613;48.902;9.204;2024-03-02T07:50:44;3.53;;;3.10;;
7142;SDS011;3613;48.902;9.204;2024-03-02T07:53:10;3.70;;;3.10;;
7142;SDS011;3613;48.902;9.204;2024-03-02T07:55:36;4.57;;;3.47;;
7142;SDS011;3613;48.902;9.204;2024-03-02T07:58:02;4.13;;;3.20;;
7142;SDS011;3613;48.902;9.204;2024-03-02T08:00:30;4.00;;;3.20;;
7142;SDS011;3613;48.902;9.204;2024-03-02T08:02:58;4.80;;;3.77;;
7142;SDS011;3613;48.902;9.204;2024-03-02T08:05:24;3.97;;;3.23;;
7142;SDS011;3613;48.902;9.204;2024-03-02T08:07:52;3.57;;;3.10;;
7142;SDS011;3613;48.902;9.204;2024-03-02T08:10:18;3.00;;;2.67;;
7142;SDS011;3613;48.902;9.204;2024-03-02T08:12:44;3.20;;;2.90;;
7142;SDS011;3613;48.902;9.204;2024-03-02T08:15:12;4.83;;;3.33;;
7142;SDS011;3613;48.902;9.204;2024-03-02T08:17:40;3.77;;;2.83;;
7142;SDS011;3613;48.902;9.204;2024-03-02T08:20:10;3.80;;;2.83;;
7142;SDS011;3613;48.902;9.204;2024-03-02T08:22:36;3.83;;;2.63;;
7142;SDS011;3613;48.902;9.204;2024-03-02T08:25:05;3.87;;;3.10;;
7142;SDS011;3613;48.902;9.204;2024-03-02T08:27:34;3.20;;;2.90;;
7142;SDS011;3613;48.902;9.204;2024-03-02T08:30:00;3.33;;;2.80;;
7142;SDS011;3613;48.902;9.204;2024-03-02T08:32:25;3.47;;;2.77;;
7142;SDS011;3613;48.902;9.204;2024-03-02T08:34:51;3.40;;;2.60;;
7142;SDS011;3613;48.902;9.204;2024-03-02T08:37:16;4.33;;;2.83;;
7142;SDS011;3613;48.902;9.204;2024-03-02T08:39:42;4.63;;;3.00;;
7142;SDS011;3613;48.902;9.204;2024-03-02T08:42:09;3.83;;;2.83;;
7142;SDS011;3613;48.902;9.204;2024-03-02T08:44:34;3.80;;;2.80;;
7142;SDS011;3613;48.902;9.204;2024-03-02T08:47:00;3.10;;;2.63;;
7142;SDS011;3613;48.902;9.204;2024-03-02T08:49:26;3.50;;;2.60;;
7142;SDS011;3613;48.902;9.204;2024-03-02T08:51:51;3.60;;;2.73;;
7142;SDS011;3613;48.902;9.204;2024-03-02T08:54:22;3.60;;;2.97;;
7142;SDS011;3613;48.902;9.204;2024-03-02T08:56:50;3.27;;;2.73;;
7142;SDS011;3613;48.902;9.204;2024-03-02T08:59:16;3.60;;;3.07;;
7142;SDS011;3613;48.902;9.204;2024-03-02T09:01:42;4.97;;;3.03;;
7142;SDS011;3613;48.902;9.204;2024-03-02T09:04:10;4.00;;;2.90;;
7142;SDS011;3613;48.902;9.204;2024-03-02T09:06:36;3.97;;;3.20;;
7142;SDS011;3613;48.902;9.204;2024-03-02T09:09:01;4.23;;;2.90;;
7142;SDS011;3613;48.902;9.204;2024-03-02T09:11:27;2.80;;;2.50;;
7142;SDS011;3613;48.902;9.204;2024-03-02T09:13:53;3.93;;;3.10;;
7142;SDS011;3613;48.902;9.204;2024-03-02T09:16:20;7.57;;;5.10;;
7142;SDS011;3613;48.902;9.204;2024-03-02T09:18:46;5.57;;;4.53;;
7142;SDS011;3613;48.902;9.204;2024-03-02T09:21:14;7.90;;;5.03;;
7142;SDS011;3613;48.902;9.204;2024-03-02T09:23:40;7.10;;;5.00;;
7142;SDS011;3613;48.902;9.204;2024-03-02T09:26:05;5.03;;;4.00;;
7142;SDS011;3613;48.902;9.204;2024-03-02T09:28:31;4.20;;;3.03;;
7142;SDS011;3613;48.902;9.204;2024-03-02T09:30:57;4.83;;;3.50;;
7142;SDS011;3613;48.902;9.204;2024-03-02T09:33:22;5.53;;;3.53;;
7142;SDS011;3613;48.902;9.204;2024-03-02T09:35:48;3.47;;;2.50;;
7142;SDS011;3613;48.902;9.204;2024-03-02T09:38:14;3.83;;;2.53;;
7142;SDS011;3613;48.902;9.204;2024-03-02T09:40:42;3.23;;;2.57;;
7142;SDS011;3613;48.902;9.204;2024-03-02T09:43:08;3.33;;;2.80;;
7142;SDS011;3613;48.902;9.204;2024-03-02T09:45:34;2.80;;;2.10;;
7142;SDS011;3613;48.902;9.204;2024-03-02T09:48:00;2.37;;;2.10;;
7142;SDS011;3613;48.902;9.204;2024-03-02T09:50:25;2.77;;;1.80;;
7142;SDS011;3613;48.902;9.204;2024-03-02T09:52:51;2.20;;;1.87;;
7142;SDS011;3613;48.902;9.204;2024-03-02T09:55:20;2.10;;;1.90;;
7142;SDS011;3613;48.902;9.204;2024-03-02T09:57:46;2.57;;;1.90;;
7142;SDS011;3613;48.902;9.204;2024-03-02T10:00:13;3.03;;;1.90;;
7142;SDS011;3613;48.902;9.204;2024-03-02T10:02:40;2.00;;;1.80;;
7142;SDS011;3613;48.902;9.204;2024-03-02T10:05:07;2.90;;;1.80;;
7142;SDS011;3613;48.902;9.204;2024-03-02T10:07:37;2.53;;;1.73;;
7142;SDS011;3613;48.902;9.204;2024-03-02T10:10:17;2.33;;;1.90;;
7142;SDS011;3613;48.902;9.204;2024-03-02T10:12:42;2.40;;;1.90;;
7142;SDS011;3613;48.902;9.204;2024-03-02T10:15:08;2.30;;;2.10;;
7142;SDS011;3613;48.902;9.204;2024-03-02T10:17:34;2.03;;;1.83;;
7142;SDS011;3613;48.902;9.204;2024-03-02T10:20:11;2.60;;;1.80;;
7142;SDS011;3613;48.902;9.204;2024-03-02T10:22:46;1.87;;;1.63;;
7142;SDS011;3613;48.902;9.204;2024-03-02T10:25:27;3.03;;;1.77;;
7142;SDS011;3613;48.902;9.204;2024-03-02T10:27:59;1.87;;;1.70;;
7142;SDS011;3613;48.902;9.204;2024-03-02T10:30:28;2.23;;;1.63;;
7142;SDS011;3613;48.902;9.204;2024-03-02T10:32:54;1.63;;;1.53;;
7142;SDS011;3613;48.902;9.204;2024-03-02T10:35:21;2.73;;;1.90;;
7142;SDS011;3613;48.902;9.204;2024-03-02T10:37:50;2.57;;;1.70;;
7142;SDS011;3613;48.902;9.204;2024-03-02T10:40:17;2.17;;;1.80;;
7142;SDS011;3613;48.902;9.204;2024-03-02T10:42:46;2.47;;;1.80;;
7142;SDS011;3613;48.902;9.204;2024-03-02T10:45:13;2.20;;;1.87;;
7142;SDS011;3613;48.902;9.204;2024-03-02T10:47:40;2.43;;;1.70;;
7142;SDS011;3613;48.902;9.204;2024-03-02T10:50:08;2.00;;;1.80;;
7142;SDS011;3613;48.902;9.204;2024-03-02T10:52:34;2.07;;;1.83;;
7142;SDS011;3613;48.902;9.204;2024-03-02T10:55:00;3.53;;;2.00;;
7142;SDS011;3613;48.902;9.204;2024-03-02T10:57:35;2.57;;;1.90;;
7142;SDS011;3613;48.902;9.204;2024-03-02T11:00:17;5.43;;;2.63;;
7142;SDS011;3613;48.902;9.204;2024-03-02T11:02:51;4.23;;;2.20;;
7142;SDS011;3613;48.902;9.204;2024-03-02T11:05:31;4.10;;;2.30;;
7142;SDS011;3613;48.902;9.204;2024-03-02T11:08:02;4.17;;;2.00;;
7142;SDS011;3613;48.902;9.204;2024-03-02T11:10:35;3.37;;;1.87;;
7142;SDS011;3613;48.902;9.204;2024-03-02T11:13:09;3.07;;;1.87;;
7142;SDS011;3613;48.902;9.204;2024-03-02T11:15:36;4.47;;;1.87;;
7142;SDS011;3613;48.902;9.204;2024-03-02T11:18:03;4.13;;;1.70;;
7142;SDS011;3613;48.902;9.204;2024-03-02T11:20:35;2.67;;;1.60;;
7142;SDS011;3613;48.902;9.204;2024-03-02T11:23:06;4.43;;;2.20;;
7142;SDS011;3613;48.902;9.204;2024-03-02T11:25:32;3.70;;;1.50;;
7142;SDS011;3613;48.902;9.204;2024-03-02T11:33:04;5.33;;;2.13;;
7142;SDS011;3613;48.902;9.204;2024-03-02T11:35:37;6.37;;;2.53;;
7142;SDS011;3613;48.902;9.204;2024-03-02T11:38:13;3.90;;;1.97;;
7142;SDS011;3613;48.902;9.204;2024-03-02T11:40:42;5.90;;;2.33;;
7142;SDS011;3613;48.902;9.204;2024-03-02T11:43:08;4.50;;;2.33;;
7142;SDS011;3613;48.902;9.204;2024-03-02T11:45:35;6.63;;;2.80;;
7142;SDS011;3613;48.902;9.204;2024-03-02T11:48:04;8.33;;;2.83;;
7142;SDS011;3613;48.902;9.204;2024-03-02T11:50:33;6.83;;;2.70;;
7142;SDS011;3613;48.902;9.204;2024-03-02T11:53:07;5.77;;;2.60;;
7142;SDS011;3613;48.902;9.204;2024-03-02T11:55:35;6.33;;;2.70;;
7142;SDS011;3613;48.902;9.204;2024-03-02T11:58:05;7.83;;;2.47;;
7142;SDS011;3613;48.902;9.204;2024-03-02T12:00:31;8.60;;;2.90;;
7142;SDS011;3613;48.902;9.204;2024-03-02T12:03:00;6.60;;;2.53;;
7142;SDS011;3613;48.902;9.204;2024-03-02T12:05:28;8.00;;;3.20;;
7142;SDS011;3613;48.902;9.204;2024-03-02T12:07:58;6.60;;;2.67;;
7142;SDS011;3613;48.902;9.204;2024-03-02T12:10:25;7.30;;;2.70;;
7142;SDS011;3613;48.902;9.204;2024-03-02T12:12:57;8.30;;;2.93;;
7142;SDS011;3613;48.902;9.204;2024-03-02T12:15:27;9.83;;;2.37;;
7142;SDS011;3613;48.902;9.204;2024-03-02T12:17:57;5.43;;;2.40;;
7142;SDS011;3613;48.902;9.204;2024-03-02T12:20:28;6.77;;;2.10;;
7142;SDS011;3613;48.902;9.204;2024-03-02T12:22:57;4.27;;;1.80;;
7142;SDS011;3613;48.902;9.204;2024-03-02T12:25:24;6.57;;;2.30;;
7142;SDS011;3613;48.902;9.204;2024-03-02T12:27:51;9.03;;;2.40;;
7142;SDS011;3613;48.902;9.204;2024-03-02T12:30:24;9.40;;;2.43;;
7142;SDS011;3613;48.902;9.204;2024-03-02T12:32:54;5.30;;;2.33;;
7142;SDS011;3613;48.902;9.204;2024-03-02T12:35:19;3.13;;;2.30;;
7142;SDS011;3613;48.902;9.204;2024-03-02T12:37:49;4.77;;;1.60;;
7142;SDS011;3613;48.902;9.204;2024-03-02T12:40:20;4.60;;;1.70;;
7142;SDS011;3613;48.902;9.204;2024-03-02T12:42:48;3.53;;;1.60;;
7142;SDS011;3613;48.902;9.204;2024-03-02T12:45:17;2.17;;;1.30;;
7142;SDS011;3613;48.902;9.204;2024-03-02T12:47:48;3.63;;;1.40;;
7142;SDS011;3613;48.902;9.204;2024-03-02T12:50:17;2.20;;;1.37;;
7142;SDS011;3613;48.902;9.204;2024-03-02T12:52:43;2.80;;;1.67;;
7142;SDS011;3613;48.902;9.204;2024-03-02T12:55:09;1.43;;;1.13;;
7142;SDS011;3613;48.902;9.204;2024-03-02T12:57:34;1.43;;;1.27;;
7142;SDS011;3613;48.902;9.204;2024-03-02T13:00:03;1.63;;;1.23;;
7142;SDS011;3613;48.902;9.204;2024-03-02T13:02:40;2.50;;;1.57;;
7142;SDS011;3613;48.902;9.204;2024-03-02T13:05:07;2.43;;;1.40;;
7142;SDS011;3613;48.902;9.204;2024-03-02T13:07:39;1.97;;;1.20;;
7142;SDS011;3613;48.902;9.204;2024-03-02T13:10:07;1.43;;;1.10;;
7142;SDS011;3613;48.902;9.204;2024-03-02T13:12:34;1.50;;;1.20;;
7142;SDS011;3613;48.902;9.204;2024-03-02T13:15:03;2.33;;;1.23;;
7142;SDS011;3613;48.902;9.204;2024-03-02T13:17:33;1.90;;;1.40;;
7142;SDS011;3613;48.902;9.204;2024-03-02T13:20:02;1.57;;;1.03;;
7142;SDS011;3613;48.902;9.204;2024-03-02T13:22:29;2.23;;;1.60;;
7142;SDS011;3613;48.902;9.204;2024-03-02T13:24:54;1.80;;;1.53;;
7142;SDS011;3613;48.902;9.204;2024-03-02T13:27:24;2.77;;;1.60;;
7142;SDS011;3613;48.902;9.204;2024-03-02T13:29:55;1.67;;;1.23;;
7142;SDS011;3613;48.902;9.204;2024-03-02T13:32:20;1.23;;;1.13;;
7142;SDS011;3613;48.902;9.204;2024-03-02T13:34:49;1.47;;;1.37;;
7142;SDS011;3613;48.902;9.204;2024-03-02T13:37:15;1.57;;;1.20;;
7142;SDS011;3613;48.902;9.204;2024-03-02T13:39:40;1.97;;;1.23;;
7142;SDS011;3613;48.902;9.204;2024-03-02T13:42:09;1.40;;;1.30;;
7142;SDS011;3613;48.902;9.204;2024-03-02T13:44:42;1.93;;;1.40;;
7142;SDS011;3613;48.902;9.204;2024-03-02T13:47:12;1.87;;;1.23;;
7142;SDS011;3613;48.902;9.204;2024-03-02T13:49:40;2.17;;;1.30;;
7142;SDS011;3613;48.902;9.204;2024-03-02T13:52:08;1.57;;;1.10;;
7142;SDS011;3613;48.902;9.204;2024-03-02T13:54:44;1.70;;;1.20;;
7142;SDS011;3613;48.902;9.204;2024-03-02T13:57:13;1.30;;;1.20;;
7142;SDS011;3613;48.902;9.204;2024-03-02T13:59:39;1.90;;;1.33;;
7142;SDS011;3613;48.902;9.204;2024-03-02T14:02:07;2.07;;;1.30;;
7142;SDS011;3613;48.902;9.204;2024-03-02T14:04:34;1.20;;;1.10;;
7142;SDS011;3613;48.902;9.204;2024-03-02T14:07:00;1.30;;;1.20;;
7142;SDS011;3613;48.902;9.204;2024-03-02T14:09:31;2.53;;;1.20;;
7142;SDS011;3613;48.902;9.204;2024-03-02T14:12:07;1.47;;;1.10;;
7142;SDS011;3613;48.902;9.204;2024-03-02T14:14:35;1.17;;;1.10;;
7142;SDS011;3613;48.902;9.204;2024-03-02T14:17:01;1.97;;;1.40;;
7142;SDS011;3613;48.902;9.204;2024-03-02T14:19:33;1.97;;;1.40;;
7142;SDS011;3613;48.902;9.204;2024-03-02T14:21:59;1.40;;;1.20;;
7142;SDS011;3613;48.902;9.204;2024-03-02T14:24:24;1.33;;;1.23;;
7142;SDS011;3613;48.902;9.204;2024-03-02T14:26:51;1.77;;;1.53;;
7142;SDS011;3613;48.902;9.204;2024-03-02T14:29:20;1.67;;;1.30;;
7142;SDS011;3613;48.902;9.204;2024-03-02T14:31:45;1.77;;;1.30;;
7142;SDS011;3613;48.902;9.204;2024-03-02T14:34:14;2.60;;;1.80;;
7142;SDS011;3613;48.902;9.204;2024-03-02T14:36:40;1.77;;;1.27;;
7142;SDS011;3613;48.902;9.204;2024-03-02T14:39:08;1.23;;;1.13;;
7142;SDS011;3613;48.902;9.204;2024-03-02T14:41:35;1.20;;;1.00;;
7142;SDS011;3613;48.902;9.204;2024-03-02T14:44:03;3.03;;;1.30;;
7142;SDS011;3613;48.902;9.204;2024-03-02T14:46:33;1.80;;;1.40;;
7142;SDS011;3613;48.902;9.204;2024-03-02T14:49:02;1.70;;;1.30;;
7142;SDS011;3613;48.902;9.204;2024-03-02T14:51:27;1.77;;;1.33;;
7142;SDS011;3613;48.902;9.204;2024-03-02T14:53:55;1.57;;;1.20;;
7142;SDS011;3613;48.902;9.204;2024-03-02T14:56:23;3.83;;;1.80;;
7142;SDS011;3613;48.902;9.204;2024-03-02T14:58:51;1.63;;;1.37;;
7142;SDS011;3613;48.902;9.204;2024-03-02T15:01:16;3.47;;;1.33;;
7142;SDS011;3613;48.902;9.204;2024-03-02T15:03:42;1.97;;;1.20;;
7142;SDS011;3613;48.902;9.204;2024-03-02T15:06:08;1.70;;;1.20;;
7142;SDS011;3613;48.902;9.204;2024-03-02T15:08:34;1.27;;;1.17;;
7142;SDS011;3613;48.902;9.204;2024-03-02T15:11:00;1.93;;;1.60;;
7142;SDS011;3613;48.902;9.204;2024-03-02T15:13:28;1.20;;;1.10;;
7142;SDS011;3613;48.902;9.204;2024-03-02T15:15:54;1.30;;;1.20;;
7142;SDS011;3613;48.902;9.204;2024-03-02T15:18:20;1.53;;;1.17;;
7142;SDS011;3613;48.902;9.204;2024-03-02T15:20:45;1.67;;;1.53;;
7142;SDS011;3613;48.902;9.204;2024-03-02T15:23:11;1.70;;;1.40;;
7142;SDS011;3613;48.902;9.204;2024-03-02T15:25:38;2.50;;;1.30;;
7142;SDS011;3613;48.902;9.204;2024-03-02T15:28:04;1.40;;;1.30;;
7142;SDS011;3613;48.902;9.204;2024-03-02T15:30:30;2.43;;;1.40;;